Celebrity Century — 9HJI9 — position and weather

sailwx.info

Track history (hours):
 
Tides and Currents Weather Stations Pressure Air Temp Water Temp Dewpoint Dewpoint Depression Visibility Wind Speed Wind Dir Waves Ship Positions

Celebrity Century

Last reported at 2019-Apr-24 20:20 UTC. Time now 2019-Apr-24 21:51 UTC.
Position N 41°23' E 002°47'.

Length 251 m; draft 8 m.

Type: Ship. MMSI: 249054000.

Date/timePositionNaut miles runAvg speedWind from/ knotsBaromVisibWave heightAir tempDewpointWater temp
2019-Apr-24 20:20N 41°23' E 002°47'618.2
2019-Apr-24 20:00N 41°20' E 002°40'918.2
2019-Apr-24 19:30N 41°17' E 002°28'918.2
2019-Apr-24 19:00N 41°14' E 002°17'612.9
2019-Apr-24 18:30N 41°18' E 002°10'3 6.0
2019-Apr-24 18:01N 41°21' E 002°11'0 0.0
2019-Apr-24 17:30N 41°21' E 002°11'0 0.0
2019-Apr-24 17:00N 41°21' E 002°11'0 0.0
2019-Apr-24 16:30N 41°21' E 002°11'0 0.0
2019-Apr-24 16:00N 41°21' E 002°11'0 0.0
2019-Apr-24 15:30N 41°21' E 002°11'0 0.0
2019-Apr-24 14:57N 41°21' E 002°11'0 0.0
2019-Apr-24 14:30N 41°21' E 002°11'0 0.0
2019-Apr-24 14:00N 41°21' E 002°11'0 0.0
2019-Apr-24 13:30N 41°21' E 002°11'0 0.0
2019-Apr-24 13:00N 41°21' E 002°11'0 0.0
2019-Apr-24 12:30N 41°21' E 002°11'0 0.0
2019-Apr-24 12:00N 41°21' E 002°11'0 0.0
2019-Apr-24 11:30N 41°21' E 002°11'0 0.0
2019-Apr-24 11:00N 41°21' E 002°11'0 0.0
2019-Apr-24 10:30N 41°21' E 002°11'0 0.0
2019-Apr-24 10:00N 41°21' E 002°11'0 0.0
2019-Apr-24 09:30N 41°21' E 002°11'0 0.0
2019-Apr-24 09:00N 41°21' E 002°11'0 0.0
2019-Apr-24 08:30N 41°21' E 002°11'0 0.0
2019-Apr-24 08:00N 41°21' E 002°11'0 0.0
2019-Apr-24 07:30N 41°21' E 002°11'0 0.0
2019-Apr-24 07:00N 41°21' E 002°11'0 0.0
2019-Apr-24 06:30N 41°21' E 002°11'0 0.0
2019-Apr-24 06:00N 41°21' E 002°11'0 0.6
2019-Apr-24 05:30N 41°21' E 002°10'1 2.6
2019-Apr-24 05:00N 41°20' E 002°10'3 5.0
2019-Apr-24 04:30N 41°17' E 002°11'4 8.7
2019-Apr-24 04:00N 41°13' E 002°11'612.8
2019-Apr-24 03:31N 41°07' E 002°11'816.3
2019-Apr-24 03:01N 40°59' E 002°12'816.4
2019-Apr-24 02:30N 40°50' E 002°13'8417.4
2019-Apr-23 21:40N 39°26' E 002°22'317.8
2019-Apr-23 21:30N 39°24' E 002°25'612.9
2019-Apr-23 21:00N 39°25' E 002°33'816.1
2019-Apr-23 20:30N 39°32' E 002°38'1 2.9
2019-Apr-23 20:00N 39°33' E 002°38'0 0.2
2019-Apr-23 19:27N 39°33' E 002°38'0 0.0
2019-Apr-23 18:57N 39°33' E 002°38'0 0.0
2019-Apr-23 18:27N 39°33' E 002°38'0 0.0
2019-Apr-23 17:57N 39°33' E 002°38'0 0.0
2019-Apr-23 17:27N 39°33' E 002°38'0 0.0
2019-Apr-23 16:57N 39°33' E 002°38'0 0.0
2019-Apr-23 16:27N 39°33' E 002°38'0 0.0
2019-Apr-23 15:57N 39°33' E 002°38'0 0.0
2019-Apr-23 15:27N 39°33' E 002°38'0 0.0
2019-Apr-23 14:57N 39°33' E 002°38'0 0.0
2019-Apr-23 14:27N 39°33' E 002°38'0 0.0
2019-Apr-23 13:57N 39°33' E 002°38'0 0.0
2019-Apr-23 13:27N 39°33' E 002°38'0 0.0
2019-Apr-23 12:57N 39°33' E 002°38'0 0.0
2019-Apr-23 12:27N 39°33' E 002°38'0 0.0
2019-Apr-23 11:57N 39°33' E 002°38'0 0.0
2019-Apr-23 11:27N 39°33' E 002°38'0 0.0
2019-Apr-23 10:57N 39°33' E 002°38'0 0.0
2019-Apr-23 10:27N 39°33' E 002°38'0 0.0
2019-Apr-23 09:57N 39°33' E 002°38'0 0.0
2019-Apr-23 09:27N 39°33' E 002°38'0 0.0
2019-Apr-23 08:57N 39°33' E 002°38'0 0.0
2019-Apr-23 08:27N 39°33' E 002°38'0 0.0
2019-Apr-23 07:57N 39°33' E 002°38'0 0.0
2019-Apr-23 07:27N 39°33' E 002°38'0 0.0
2019-Apr-23 06:57N 39°33' E 002°38'0 0.0
2019-Apr-23 06:27N 39°33' E 002°38'0 0.0
2019-Apr-23 05:57N 39°33' E 002°38'0 0.0
2019-Apr-23 05:27N 39°33' E 002°38'0 0.0
2019-Apr-23 04:57N 39°33' E 002°38'0 0.0
2019-Apr-23 04:27N 39°33' E 002°38'0 0.0
2019-Apr-23 03:57N 39°33' E 002°38'0 0.1
2019-Apr-23 03:30N 39°33' E 002°38'1 2.4
2019-Apr-23 03:00N 39°32' E 002°39'3 6.8
2019-Apr-23 02:30N 39°29' E 002°39'3 6.5
2019-Apr-23 02:00N 39°26' E 002°39'3 5.8
2019-Apr-23 01:30N 39°23' E 002°39'3 6.8
2019-Apr-23 01:00N 39°20' E 002°41'4 7.5
2019-Apr-23 00:30N 39°17' E 002°44'4 7.2
2019-Apr-23 00:00N 39°14' E 002°46'510.3
2019-Apr-22 23:30N 39°09' E 002°50'510.8
2019-Apr-22 23:00N 39°05' E 002°53'510.3
2019-Apr-22 22:30N 39°04' E 002°60'611.5
2019-Apr-22 22:00N 39°06' E 003°06'611.7
2019-Apr-22 21:30N 39°09' E 003°13'1011.7
2019-Apr-22 20:40N 39°13' E 003°25'711.3
2019-Apr-22 20:05N 39°16' E 003°32'711.5
2019-Apr-22 19:29N 39°19' E 003°40'447 9.4
2019-Apr-20 19:43N 40°42' E 013°13'416.8
2019-Apr-20 19:30N 40°41' E 013°18'816.5
2019-Apr-20 19:00N 40°40' E 013°29'816.2
2019-Apr-20 18:30N 40°39' E 013°40'816.2
2019-Apr-20 18:00N 40°39' E 013°50'816.6
2019-Apr-20 17:30N 40°39' E 014°01'815.2
2019-Apr-20 17:01N 40°43' E 014°10'713.2
2019-Apr-20 16:30N 40°47' E 014°16'3 6.6
2019-Apr-20 16:01N 40°50' E 014°16'0 0.1
2019-Apr-20 15:29N 40°50' E 014°16'0 0.0
2019-Apr-20 14:59N 40°50' E 014°16'0 0.0
2019-Apr-20 14:29N 40°50' E 014°16'0 0.0
2019-Apr-20 13:59N 40°50' E 014°16'0 0.0
2019-Apr-20 13:29N 40°50' E 014°16'0 0.0
2019-Apr-20 12:59N 40°50' E 014°16'0 0.0
2019-Apr-20 12:29N 40°50' E 014°16'0 0.0
2019-Apr-20 11:59N 40°50' E 014°16'0 0.0
2019-Apr-20 11:29N 40°50' E 014°16'0 0.0
2019-Apr-20 10:59N 40°50' E 014°16'0 0.0
2019-Apr-20 10:29N 40°50' E 014°16'0 0.0
2019-Apr-20 09:59N 40°50' E 014°16'0 0.0
2019-Apr-20 09:29N 40°50' E 014°16'0 0.0
2019-Apr-20 08:59N 40°50' E 014°16'0 0.0
2019-Apr-20 08:29N 40°50' E 014°16'0 0.0
2019-Apr-20 07:59N 40°50' E 014°16'0 0.0
2019-Apr-20 07:29N 40°50' E 014°16'0 0.0
2019-Apr-20 06:59N 40°50' E 014°16'0 0.0
2019-Apr-20 06:29N 40°50' E 014°16'0 0.0
2019-Apr-20 05:59N 40°50' E 014°16'0 0.0
2019-Apr-20 05:29N 40°50' E 014°16'0 0.8
2019-Apr-20 05:00N 40°50' E 014°16'3 5.9
2019-Apr-20 04:30N 40°47' E 014°17'4 7.9
2019-Apr-20 04:00N 40°44' E 014°14'612.8
2019-Apr-20 03:30N 40°40' E 014°08'713.7
2019-Apr-20 03:01N 40°38' E 013°59'612.8
2019-Apr-20 02:30N 40°39' E 013°51'815.7
2019-Apr-20 02:01N 40°40' E 013°40'816.4
2019-Apr-20 01:31N 40°41' E 013°30'816.1
2019-Apr-20 01:01N 40°43' E 013°19'815.9
2019-Apr-20 00:31N 40°45' E 013°09'816.1
2019-Apr-20 00:01N 40°47' E 012°59'1215.9
2019-Apr-19 23:14N 40°53' E 012°45'1116.5
2019-Apr-19 22:33N 41°00' E 012°33'316.7
2019-Apr-19 22:21N 41°02' E 012°31'617.1
2019-Apr-19 22:00N 41°08' E 012°27'67 3.6
2019-Apr-19 03:16N 42°02' E 011°34'514.4
2019-Apr-19 02:54N 42°00' E 011°28'3015.1
2019-Apr-19 00:56N 41°48' E 010°51'1516.6
2019-Apr-19 00:00N 41°42' E 010°32'916.7
2019-Apr-18 23:28N 41°40' E 010°21'816.8
2019-Apr-18 23:00N 41°37' E 010°11'2017.0
2019-Apr-18 21:48N 41°29' E 009°46'1716.9
2019-Apr-18 20:48N 41°23' E 009°25'516.5
2019-Apr-18 20:29N 41°20' E 009°19'3014.2
2019-Apr-18 18:22N 41°30' E 008°42'616.2
2019-Apr-18 18:00N 41°35' E 008°37'917.0
2019-Apr-18 17:30N 41°42' E 008°31'816.3
2019-Apr-18 16:59N 41°50' E 008°36'9 1.5
2019-Apr-18 10:59N 41°55' E 008°44'1 0.1
2019-Apr-18 07:00N 41°55' E 008°45'4 7.8
2019-Apr-18 06:31N 41°52' E 008°43'5 9.1
2019-Apr-18 06:00N 41°49' E 008°38'815.5
2019-Apr-18 05:30N 41°46' E 008°28'815.8
2019-Apr-18 05:00N 41°46' E 008°18'816.0
2019-Apr-18 04:30N 41°46' E 008°07'916.8
2019-Apr-18 04:00N 41°46' E 007°56'1117.9
2019-Apr-18 03:21N 41°46' E 007°40'718.6
2019-Apr-18 02:59N 41°45' E 007°31'918.6
2019-Apr-18 02:30N 41°45' E 007°19'918.5
2019-Apr-18 02:00N 41°46' E 007°07'918.3
2019-Apr-18 01:30N 41°46' E 006°54'918.5
2019-Apr-18 01:00N 41°47' E 006°42'200 8.4
2019-Apr-17 01:12N 40°32' E 002°36'918.6
2019-Apr-17 00:42N 40°23' E 002°32'1118.3
2019-Apr-17 00:07N 40°13' E 002°28'4516.6
2019-Apr-16 21:24N 39°28' E 002°23'717.7
2019-Apr-16 21:00N 39°25' E 002°31'916.9
2019-Apr-16 20:30N 39°32' E 002°38'1 2.1
2019-Apr-16 19:59N 39°33' E 002°38'0 0.0
2019-Apr-16 19:29N 39°33' E 002°38'0 0.0
2019-Apr-16 18:59N 39°33' E 002°38'0 0.0
2019-Apr-16 18:29N 39°33' E 002°38'0 0.0
2019-Apr-16 17:59N 39°33' E 002°38'0 0.0
2019-Apr-16 17:29N 39°33' E 002°38'0 0.0
2019-Apr-16 16:59N 39°33' E 002°38'0 0.0
2019-Apr-16 16:29N 39°33' E 002°38'0 0.0
2019-Apr-16 15:59N 39°33' E 002°38'0 0.0
2019-Apr-16 15:29N 39°33' E 002°38'0 0.0
2019-Apr-16 14:59N 39°33' E 002°38'0 0.0
2019-Apr-16 14:29N 39°33' E 002°38'0 0.0
2019-Apr-16 13:59N 39°33' E 002°38'0 0.0
2019-Apr-16 13:29N 39°33' E 002°38'0 0.0
2019-Apr-16 12:59N 39°33' E 002°38'0 0.0
2019-Apr-16 12:29N 39°33' E 002°38'0 0.0
2019-Apr-16 11:59N 39°33' E 002°38'0 0.0
2019-Apr-16 11:29N 39°33' E 002°38'0 0.0
2019-Apr-16 10:59N 39°33' E 002°38'0 0.0
2019-Apr-16 10:29N 39°33' E 002°38'0 0.0
2019-Apr-16 09:59N 39°33' E 002°38'0 0.0
2019-Apr-16 09:29N 39°33' E 002°38'0 0.0
2019-Apr-16 08:59N 39°33' E 002°38'0 0.0
2019-Apr-16 08:29N 39°33' E 002°38'0 0.0
2019-Apr-16 07:59N 39°33' E 002°38'0 0.0
2019-Apr-16 07:29N 39°33' E 002°38'0 0.0
2019-Apr-16 06:59N 39°33' E 002°38'0 0.0
2019-Apr-16 06:29N 39°33' E 002°38'0 0.0
2019-Apr-16 05:59N 39°33' E 002°38'0 0.0
2019-Apr-16 05:29N 39°33' E 002°38'0 0.0
2019-Apr-16 04:59N 39°33' E 002°38'0 0.0
2019-Apr-16 04:29N 39°33' E 002°38'0 0.0
2019-Apr-16 03:59N 39°33' E 002°38'0 0.6
2019-Apr-16 03:30N 39°33' E 002°38'1 1.9
2019-Apr-16 03:00N 39°32' E 002°38'612.3
2019-Apr-16 02:30N 39°27' E 002°34'713.4
2019-Apr-16 02:00N 39°26' E 002°26'9013.7
2019-Apr-15 19:26N 40°56' E 002°11'714.7
2019-Apr-15 18:59N 41°02' E 002°11'714.8
2019-Apr-15 18:31N 41°09' E 002°11'612.6
2019-Apr-15 18:00N 41°16' E 002°11'4 8.8
2019-Apr-15 17:30N 41°20' E 002°10'2 3.9
2019-Apr-15 17:00N 41°22' E 002°11'0 0.0
2019-Apr-15 16:28N 41°22' E 002°11'0 0.0
2019-Apr-15 15:58N 41°22' E 002°11'0 0.0
2019-Apr-15 15:28N 41°22' E 002°11'0 0.0
2019-Apr-15 14:58N 41°22' E 002°11'0 0.0
2019-Apr-15 14:28N 41°22' E 002°11'0 0.0
2019-Apr-15 13:59N 41°22' E 002°11'0 0.0
2019-Apr-15 13:28N 41°22' E 002°11'0 0.0
2019-Apr-15 12:59N 41°22' E 002°11'0 0.0
2019-Apr-15 12:28N 41°22' E 002°11'0 0.0
2019-Apr-15 11:59N 41°22' E 002°11'0 0.0
2019-Apr-15 11:29N 41°22' E 002°11'0 0.0
2019-Apr-15 10:59N 41°22' E 002°11'0 0.0
2019-Apr-15 10:29N 41°22' E 002°11'0 0.0
2019-Apr-15 09:58N 41°22' E 002°11'0 0.0
2019-Apr-15 09:29N 41°22' E 002°11'0 0.0
2019-Apr-15 08:59N 41°22' E 002°11'0 0.0
2019-Apr-15 08:29N 41°22' E 002°11'0 0.0
2019-Apr-15 07:58N 41°22' E 002°11'0 0.0
2019-Apr-15 07:28N 41°22' E 002°11'0 0.0
2019-Apr-15 06:58N 41°22' E 002°11'0 0.0
2019-Apr-15 06:28N 41°22' E 002°11'0 0.0
2019-Apr-15 05:59N 41°22' E 002°11'0 0.8
2019-Apr-15 05:31N 41°21' E 002°11'3 6.5
2019-Apr-15 05:01N 41°18' E 002°11'3 6.1
2019-Apr-15 04:30N 41°17' E 002°14'510.8
2019-Apr-15 04:01N 41°18' E 002°21'713.5
2019-Apr-15 03:31N 41°20' E 002°30'714.9
2019-Apr-15 03:00N 41°22' E 002°40'714.6
2019-Apr-15 02:30N 41°24' E 002°49'715.3
2019-Apr-15 02:01N 41°28' E 002°58'815.6
2019-Apr-15 01:30N 41°32' E 003°07'  
Track history (hours):
 
Tides and Currents Weather Stations Pressure Air Temp Water Temp Dewpoint Dewpoint Depression Visibility Wind Speed Wind Dir Waves Ship Positions

Celebrity Century

Last reported at 2019-Apr-24 20:20 UTC. Time now 2019-Apr-24 21:51 UTC.
Position N 41°23' E 002°47'.

Length 251 m; draft 8 m.

Type: Ship. MMSI: 249054000.

Date/timePositionNaut miles runAvg speedWind from/ knotsBaromVisibWave heightAir tempDewpointWater temp
2019-Apr-24 20:20N 41°23' E 002°47'618.2
2019-Apr-24 20:00N 41°20' E 002°40'918.2
2019-Apr-24 19:30N 41°17' E 002°28'918.2
2019-Apr-24 19:00N 41°14' E 002°17'612.9
2019-Apr-24 18:30N 41°18' E 002°10'3 6.0
2019-Apr-24 18:01N 41°21' E 002°11'0 0.0
2019-Apr-24 17:30N 41°21' E 002°11'0 0.0
2019-Apr-24 17:00N 41°21' E 002°11'0 0.0
2019-Apr-24 16:30N 41°21' E 002°11'0 0.0
2019-Apr-24 16:00N 41°21' E 002°11'0 0.0
2019-Apr-24 15:30N 41°21' E 002°11'0 0.0
2019-Apr-24 14:57N 41°21' E 002°11'0 0.0
2019-Apr-24 14:30N 41°21' E 002°11'0 0.0
2019-Apr-24 14:00N 41°21' E 002°11'0 0.0
2019-Apr-24 13:30N 41°21' E 002°11'0 0.0
2019-Apr-24 13:00N 41°21' E 002°11'0 0.0
2019-Apr-24 12:30N 41°21' E 002°11'0 0.0
2019-Apr-24 12:00N 41°21' E 002°11'0 0.0
2019-Apr-24 11:30N 41°21' E 002°11'0 0.0
2019-Apr-24 11:00N 41°21' E 002°11'0 0.0
2019-Apr-24 10:30N 41°21' E 002°11'0 0.0
2019-Apr-24 10:00N 41°21' E 002°11'0 0.0
2019-Apr-24 09:30N 41°21' E 002°11'0 0.0
2019-Apr-24 09:00N 41°21' E 002°11'0 0.0
2019-Apr-24 08:30N 41°21' E 002°11'0 0.0
2019-Apr-24 08:00N 41°21' E 002°11'0 0.0
2019-Apr-24 07:30N 41°21' E 002°11'0 0.0
2019-Apr-24 07:00N 41°21' E 002°11'0 0.0
2019-Apr-24 06:30N 41°21' E 002°11'0 0.0
2019-Apr-24 06:00N 41°21' E 002°11'0 0.6
2019-Apr-24 05:30N 41°21' E 002°10'1 2.6
2019-Apr-24 05:00N 41°20' E 002°10'3 5.0
2019-Apr-24 04:30N 41°17' E 002°11'4 8.7
2019-Apr-24 04:00N 41°13' E 002°11'612.8
2019-Apr-24 03:31N 41°07' E 002°11'816.3
2019-Apr-24 03:01N 40°59' E 002°12'816.4
2019-Apr-24 02:30N 40°50' E 002°13'8417.4
2019-Apr-23 21:40N 39°26' E 002°22'317.8
2019-Apr-23 21:30N 39°24' E 002°25'612.9
2019-Apr-23 21:00N 39°25' E 002°33'816.1
2019-Apr-23 20:30N 39°32' E 002°38'1 2.9
2019-Apr-23 20:00N 39°33' E 002°38'0 0.2
2019-Apr-23 19:27N 39°33' E 002°38'0 0.0
2019-Apr-23 18:57N 39°33' E 002°38'0 0.0
2019-Apr-23 18:27N 39°33' E 002°38'0 0.0
2019-Apr-23 17:57N 39°33' E 002°38'0 0.0
2019-Apr-23 17:27N 39°33' E 002°38'0 0.0
2019-Apr-23 16:57N 39°33' E 002°38'0 0.0
2019-Apr-23 16:27N 39°33' E 002°38'0 0.0
2019-Apr-23 15:57N 39°33' E 002°38'0 0.0
2019-Apr-23 15:27N 39°33' E 002°38'0 0.0
2019-Apr-23 14:57N 39°33' E 002°38'0 0.0
2019-Apr-23 14:27N 39°33' E 002°38'0 0.0
2019-Apr-23 13:57N 39°33' E 002°38'0 0.0
2019-Apr-23 13:27N 39°33' E 002°38'0 0.0
2019-Apr-23 12:57N 39°33' E 002°38'0 0.0
2019-Apr-23 12:27N 39°33' E 002°38'0 0.0
2019-Apr-23 11:57N 39°33' E 002°38'0 0.0
2019-Apr-23 11:27N 39°33' E 002°38'0 0.0
2019-Apr-23 10:57N 39°33' E 002°38'0 0.0
2019-Apr-23 10:27N 39°33' E 002°38'0 0.0
2019-Apr-23 09:57N 39°33' E 002°38'0 0.0
2019-Apr-23 09:27N 39°33' E 002°38'0 0.0
2019-Apr-23 08:57N 39°33' E 002°38'0 0.0
2019-Apr-23 08:27N 39°33' E 002°38'0 0.0
2019-Apr-23 07:57N 39°33' E 002°38'0 0.0
2019-Apr-23 07:27N 39°33' E 002°38'0 0.0
2019-Apr-23 06:57N 39°33' E 002°38'0 0.0
2019-Apr-23 06:27N 39°33' E 002°38'0 0.0
2019-Apr-23 05:57N 39°33' E 002°38'0 0.0
2019-Apr-23 05:27N 39°33' E 002°38'0 0.0
2019-Apr-23 04:57N 39°33' E 002°38'0 0.0
2019-Apr-23 04:27N 39°33' E 002°38'0 0.0
2019-Apr-23 03:57N 39°33' E 002°38'0 0.1
2019-Apr-23 03:30N 39°33' E 002°38'1 2.4
2019-Apr-23 03:00N 39°32' E 002°39'3 6.8
2019-Apr-23 02:30N 39°29' E 002°39'3 6.5
2019-Apr-23 02:00N 39°26' E 002°39'3 5.8
2019-Apr-23 01:30N 39°23' E 002°39'3 6.8
2019-Apr-23 01:00N 39°20' E 002°41'4 7.5
2019-Apr-23 00:30N 39°17' E 002°44'4 7.2
2019-Apr-23 00:00N 39°14' E 002°46'510.3
2019-Apr-22 23:30N 39°09' E 002°50'510.8
2019-Apr-22 23:00N 39°05' E 002°53'510.3
2019-Apr-22 22:30N 39°04' E 002°60'611.5
2019-Apr-22 22:00N 39°06' E 003°06'611.7
2019-Apr-22 21:30N 39°09' E 003°13'1011.7
2019-Apr-22 20:40N 39°13' E 003°25'711.3
2019-Apr-22 20:05N 39°16' E 003°32'711.5
2019-Apr-22 19:29N 39°19' E 003°40'447 9.4
2019-Apr-20 19:43N 40°42' E 013°13'416.8
2019-Apr-20 19:30N 40°41' E 013°18'816.5
2019-Apr-20 19:00N 40°40' E 013°29'816.2
2019-Apr-20 18:30N 40°39' E 013°40'816.2
2019-Apr-20 18:00N 40°39' E 013°50'816.6
2019-Apr-20 17:30N 40°39' E 014°01'815.2
2019-Apr-20 17:01N 40°43' E 014°10'713.2
2019-Apr-20 16:30N 40°47' E 014°16'3 6.6
2019-Apr-20 16:01N 40°50' E 014°16'0 0.1
2019-Apr-20 15:29N 40°50' E 014°16'0 0.0
2019-Apr-20 14:59N 40°50' E 014°16'0 0.0
2019-Apr-20 14:29N 40°50' E 014°16'0 0.0
2019-Apr-20 13:59N 40°50' E 014°16'0 0.0
2019-Apr-20 13:29N 40°50' E 014°16'0 0.0
2019-Apr-20 12:59N 40°50' E 014°16'0 0.0
2019-Apr-20 12:29N 40°50' E 014°16'0 0.0
2019-Apr-20 11:59N 40°50' E 014°16'0 0.0
2019-Apr-20 11:29N 40°50' E 014°16'0 0.0
2019-Apr-20 10:59N 40°50' E 014°16'0 0.0
2019-Apr-20 10:29N 40°50' E 014°16'0 0.0
2019-Apr-20 09:59N 40°50' E 014°16'0 0.0
2019-Apr-20 09:29N 40°50' E 014°16'0 0.0
2019-Apr-20 08:59N 40°50' E 014°16'0 0.0
2019-Apr-20 08:29N 40°50' E 014°16'0 0.0
2019-Apr-20 07:59N 40°50' E 014°16'0 0.0
2019-Apr-20 07:29N 40°50' E 014°16'0 0.0
2019-Apr-20 06:59N 40°50' E 014°16'0 0.0
2019-Apr-20 06:29N 40°50' E 014°16'0 0.0
2019-Apr-20 05:59N 40°50' E 014°16'0 0.0
2019-Apr-20 05:29N 40°50' E 014°16'0 0.8
2019-Apr-20 05:00N 40°50' E 014°16'3 5.9
2019-Apr-20 04:30N 40°47' E 014°17'4 7.9
2019-Apr-20 04:00N 40°44' E 014°14'612.8
2019-Apr-20 03:30N 40°40' E 014°08'713.7
2019-Apr-20 03:01N 40°38' E 013°59'612.8
2019-Apr-20 02:30N 40°39' E 013°51'815.7
2019-Apr-20 02:01N 40°40' E 013°40'816.4
2019-Apr-20 01:31N 40°41' E 013°30'816.1
2019-Apr-20 01:01N 40°43' E 013°19'815.9
2019-Apr-20 00:31N 40°45' E 013°09'816.1
2019-Apr-20 00:01N 40°47' E 012°59'1215.9
2019-Apr-19 23:14N 40°53' E 012°45'1116.5
2019-Apr-19 22:33N 41°00' E 012°33'316.7
2019-Apr-19 22:21N 41°02' E 012°31'617.1
2019-Apr-19 22:00N 41°08' E 012°27'67 3.6
2019-Apr-19 03:16N 42°02' E 011°34'514.4
2019-Apr-19 02:54N 42°00' E 011°28'3015.1
2019-Apr-19 00:56N 41°48' E 010°51'1516.6
2019-Apr-19 00:00N 41°42' E 010°32'916.7
2019-Apr-18 23:28N 41°40' E 010°21'816.8
2019-Apr-18 23:00N 41°37' E 010°11'2017.0
2019-Apr-18 21:48N 41°29' E 009°46'1716.9
2019-Apr-18 20:48N 41°23' E 009°25'516.5
2019-Apr-18 20:29N 41°20' E 009°19'3014.2
2019-Apr-18 18:22N 41°30' E 008°42'616.2
2019-Apr-18 18:00N 41°35' E 008°37'917.0
2019-Apr-18 17:30N 41°42' E 008°31'816.3
2019-Apr-18 16:59N 41°50' E 008°36'9 1.5
2019-Apr-18 10:59N 41°55' E 008°44'1 0.1
2019-Apr-18 07:00N 41°55' E 008°45'4 7.8
2019-Apr-18 06:31N 41°52' E 008°43'5 9.1
2019-Apr-18 06:00N 41°49' E 008°38'815.5
2019-Apr-18 05:30N 41°46' E 008°28'815.8
2019-Apr-18 05:00N 41°46' E 008°18'816.0
2019-Apr-18 04:30N 41°46' E 008°07'916.8
2019-Apr-18 04:00N 41°46' E 007°56'1117.9
2019-Apr-18 03:21N 41°46' E 007°40'718.6
2019-Apr-18 02:59N 41°45' E 007°31'918.6
2019-Apr-18 02:30N 41°45' E 007°19'918.5
2019-Apr-18 02:00N 41°46' E 007°07'918.3
2019-Apr-18 01:30N 41°46' E 006°54'918.5
2019-Apr-18 01:00N 41°47' E 006°42'200 8.4
2019-Apr-17 01:12N 40°32' E 002°36'918.6
2019-Apr-17 00:42N 40°23' E 002°32'1118.3
2019-Apr-17 00:07N 40°13' E 002°28'4516.6
2019-Apr-16 21:24N 39°28' E 002°23'717.7
2019-Apr-16 21:00N 39°25' E 002°31'916.9
2019-Apr-16 20:30N 39°32' E 002°38'1 2.1
2019-Apr-16 19:59N 39°33' E 002°38'0 0.0
2019-Apr-16 19:29N 39°33' E 002°38'0 0.0
2019-Apr-16 18:59N 39°33' E 002°38'0 0.0
2019-Apr-16 18:29N 39°33' E 002°38'0 0.0
2019-Apr-16 17:59N 39°33' E 002°38'0 0.0
2019-Apr-16 17:29N 39°33' E 002°38'0 0.0
2019-Apr-16 16:59N 39°33' E 002°38'0 0.0
2019-Apr-16 16:29N 39°33' E 002°38'0 0.0
2019-Apr-16 15:59N 39°33' E 002°38'0 0.0
2019-Apr-16 15:29N 39°33' E 002°38'0 0.0
2019-Apr-16 14:59N 39°33' E 002°38'0 0.0
2019-Apr-16 14:29N 39°33' E 002°38'0 0.0
2019-Apr-16 13:59N 39°33' E 002°38'0 0.0
2019-Apr-16 13:29N 39°33' E 002°38'0 0.0
2019-Apr-16 12:59N 39°33' E 002°38'0 0.0
2019-Apr-16 12:29N 39°33' E 002°38'0 0.0
2019-Apr-16 11:59N 39°33' E 002°38'0 0.0
2019-Apr-16 11:29N 39°33' E 002°38'0 0.0
2019-Apr-16 10:59N 39°33' E 002°38'0 0.0
2019-Apr-16 10:29N 39°33' E 002°38'0 0.0
2019-Apr-16 09:59N 39°33' E 002°38'0 0.0
2019-Apr-16 09:29N 39°33' E 002°38'0 0.0
2019-Apr-16 08:59N 39°33' E 002°38'0 0.0
2019-Apr-16 08:29N 39°33' E 002°38'0 0.0
2019-Apr-16 07:59N 39°33' E 002°38'0 0.0
2019-Apr-16 07:29N 39°33' E 002°38'0 0.0
2019-Apr-16 06:59N 39°33' E 002°38'0 0.0
2019-Apr-16 06:29N 39°33' E 002°38'0 0.0
2019-Apr-16 05:59N 39°33' E 002°38'0 0.0
2019-Apr-16 05:29N 39°33' E 002°38'0 0.0
2019-Apr-16 04:59N 39°33' E 002°38'0 0.0
2019-Apr-16 04:29N 39°33' E 002°38'0 0.0
2019-Apr-16 03:59N 39°33' E 002°38'0 0.6
2019-Apr-16 03:30N 39°33' E 002°38'1 1.9
2019-Apr-16 03:00N 39°32' E 002°38'612.3
2019-Apr-16 02:30N 39°27' E 002°34'713.4
2019-Apr-16 02:00N 39°26' E 002°26'9013.7
2019-Apr-15 19:26N 40°56' E 002°11'714.7
2019-Apr-15 18:59N 41°02' E 002°11'714.8
2019-Apr-15 18:31N 41°09' E 002°11'612.6
2019-Apr-15 18:00N 41°16' E 002°11'4 8.8
2019-Apr-15 17:30N 41°20' E 002°10'2 3.9
2019-Apr-15 17:00N 41°22' E 002°11'0 0.0
2019-Apr-15 16:28N 41°22' E 002°11'0 0.0
2019-Apr-15 15:58N 41°22' E 002°11'0 0.0
2019-Apr-15 15:28N 41°22' E 002°11'0 0.0
2019-Apr-15 14:58N 41°22' E 002°11'0 0.0
2019-Apr-15 14:28N 41°22' E 002°11'0 0.0
2019-Apr-15 13:59N 41°22' E 002°11'0 0.0
2019-Apr-15 13:28N 41°22' E 002°11'0 0.0
2019-Apr-15 12:59N 41°22' E 002°11'0 0.0
2019-Apr-15 12:28N 41°22' E 002°11'0 0.0
2019-Apr-15 11:59N 41°22' E 002°11'0 0.0
2019-Apr-15 11:29N 41°22' E 002°11'0 0.0
2019-Apr-15 10:59N 41°22' E 002°11'0 0.0
2019-Apr-15 10:29N 41°22' E 002°11'0 0.0
2019-Apr-15 09:58N 41°22' E 002°11'0 0.0
2019-Apr-15 09:29N 41°22' E 002°11'0 0.0
2019-Apr-15 08:59N 41°22' E 002°11'0 0.0
2019-Apr-15 08:29N 41°22' E 002°11'0 0.0
2019-Apr-15 07:58N 41°22' E 002°11'0 0.0
2019-Apr-15 07:28N 41°22' E 002°11'0 0.0
2019-Apr-15 06:58N 41°22' E 002°11'0 0.0
2019-Apr-15 06:28N 41°22' E 002°11'0 0.0
2019-Apr-15 05:59N 41°22' E 002°11'0 0.8
2019-Apr-15 05:31N 41°21' E 002°11'3 6.5
2019-Apr-15 05:01N 41°18' E 002°11'3 6.1
2019-Apr-15 04:30N 41°17' E 002°14'510.8
2019-Apr-15 04:01N 41°18' E 002°21'713.5
2019-Apr-15 03:31N 41°20' E 002°30'714.9
2019-Apr-15 03:00N 41°22' E 002°40'714.6
2019-Apr-15 02:30N 41°24' E 002°49'715.3
2019-Apr-15 02:01N 41°28' E 002°58'815.6
2019-Apr-15 01:30N 41°32' E 003°07'  

Dump ship's entire track history